Time;durP1;ratioP1;P1;durP2;ratioP2;P2;SDS_P1;SDS_P2;PMS_P1;PMS_P2;Temp;Humidity;BMP_temperature;BMP_pressure;BME280_temperature;BME280_humidity;BME280_pressure;Samples;Min_cycle;Max_cycle;Signal;HPM_P1;HPM_P2
2021/12/24 00:02:17;;;;;;;104.00;31.02;;;6.00;99.90;;;;;;4850060;29;20095;-82
2021/12/24 00:04:52;;;;;;;107.75;32.58;;;6.00;99.90;;;;;;4827851;29;75618;-82
2021/12/24 00:07:23;;;;;;;113.85;31.75;;;6.00;99.90;;;;;;4843898;29;20383;-82
2021/12/24 00:10:06;;;;;;;97.57;28.37;;;6.00;99.90;;;;;;4854465;29;212748;-82
2021/12/24 00:12:56;;;;;;;105.95;30.45;;;6.10;99.90;;;;;;4851654;29;20865;-82
2021/12/24 00:35:36;;;;;;;96.47;27.77;;;6.20;99.90;;;;;;4783963;28;6024541;-82
2021/12/24 00:38:06;;;;;;;96.10;28.80;;;6.30;99.90;;;;;;5002113;28;20045;-82
2021/12/24 00:40:41;;;;;;;98.75;27.73;;;6.30;99.90;;;;;;4997056;28;25244;-82
2021/12/24 00:43:26;;;;;;;89.50;26.13;;;6.30;99.90;;;;;;5002700;28;20062;-83
2021/12/24 00:46:00;;;;;;;84.45;26.27;;;6.30;99.90;;;;;;4994661;28;108199;-84
2021/12/24 00:48:39;;;;;;;79.80;24.95;;;6.40;99.90;;;;;;4971064;28;20476;-83
2021/12/24 00:57:01;;;;;;;72.47;22.80;;;6.40;99.90;;;;;;4934514;29;20396;-83
2021/12/24 00:59:29;;;;;;;71.18;22.05;;;6.40;99.90;;;;;;4920720;28;162850;-82
2021/12/24 01:02:03;;;;;;;73.73;23.40;;;6.40;99.90;;;;;;4920449;29;20102;-83
2021/12/24 01:04:30;;;;;;;66.57;22.00;;;6.40;99.90;;;;;;4892124;29;175411;-82
2021/12/24 01:06:59;;;;;;;77.63;21.30;;;6.50;99.90;;;;;;4936166;28;20571;-83
2021/12/24 01:09:26;;;;;;;76.47;21.98;;;6.50;99.90;;;;;;4919141;28;131674;-83
2021/12/24 01:11:55;;;;;;;78.32;21.20;;;6.50;99.90;;;;;;4931531;28;20460;-81
2021/12/24 01:14:22;;;;;;;71.03;21.92;;;6.50;99.90;;;;;;4906178;29;48020;-82
2021/12/24 01:19:49;;;;;;;73.25;19.23;;;6.50;99.90;;;;;;4916967;28;168658;-82
2021/12/24 01:25:15;;;;;;;65.85;19.83;;;6.50;99.90;;;;;;4928222;28;57459;-82
2021/12/24 01:28:04;;;;;;;59.63;18.02;;;6.50;99.90;;;;;;4936428;28;20047;-81
2021/12/24 01:38:58;;;;;;;71.55;17.38;;;6.60;99.90;;;;;;4952459;28;20050;-83
2021/12/24 01:44:12;;;;;;;54.80;16.88;;;6.70;99.90;;;;;;4924550;28;45428;-81
2021/12/24 01:46:38;;;;;;;42.85;15.32;;;6.70;99.90;;;;;;4934535;28;20051;-81
2021/12/24 01:49:05;;;;;;;49.58;15.32;;;6.70;99.90;;;;;;4906793;28;92837;-82
2021/12/24 01:51:31;;;;;;;51.80;16.42;;;6.70;99.90;;;;;;4933707;28;20624;-82
2021/12/24 01:53:57;;;;;;;49.65;15.60;;;6.80;99.90;;;;;;4935072;29;20066;-83
2021/12/24 01:56:26;;;;;;;44.47;14.85;;;6.80;99.90;;;;;;4950812;28;246851;-82
2021/12/24 01:58:55;;;;;;;46.45;14.32;;;6.90;99.90;;;;;;5001069;28;20391;-81
2021/12/24 02:01:27;;;;;;;47.45;14.73;;;6.80;99.90;;;;;;4976758;28;251690;-81
2021/12/24 02:03:58;;;;;;;35.83;12.77;;;6.80;99.90;;;;;;4989894;28;20065;-80
2021/12/24 02:06:27;;;;;;;42.67;13.32;;;6.90;99.90;;;;;;4977690;28;138992;-81
2021/12/24 02:08:59;;;;;;;36.05;12.48;;;6.90;99.90;;;;;;4989396;28;20057;-81
2021/12/24 02:11:29;;;;;;;40.25;13.32;;;6.90;99.90;;;;;;4997705;28;228464;-82
2021/12/24 02:13:56;;;;;;;39.22;12.43;;;7.00;99.90;;;;;;4987065;28;20423;-81
2021/12/24 02:17:29;;;;;;;31.23;11.25;;;6.90;99.90;;;;;;5012475;28;150010;-84
2021/12/24 02:30:20;;;;;;;29.80;10.52;;;7.00;99.90;;;;;;5005383;28;251695;-82
2021/12/24 02:32:50;;;;;;;30.50;10.43;;;7.00;99.90;;;;;;5004374;28;20133;-82
2021/12/24 02:35:19;;;;;;;27.00;9.63;;;7.10;99.90;;;;;;5000450;28;108049;-83
2021/12/24 02:37:45;;;;;;;28.75;10.18;;;7.10;99.90;;;;;;4995207;28;20045;-84
2021/12/24 02:40:12;;;;;;;23.55;9.65;;;7.10;99.90;;;;;;4986030;28;45120;-82
2021/12/24 02:42:38;;;;;;;26.55;9.75;;;7.10;99.90;;;;;;4989118;28;20534;-81
2021/12/24 02:45:05;;;;;;;25.33;9.27;;;7.10;99.90;;;;;;4989160;28;204325;-82
2021/12/24 02:55:16;;;;;;;20.90;8.52;;;7.20;99.90;;;;;;5010980;28;82076;-83
2021/12/24 02:57:43;;;;;;;23.15;9.48;;;7.20;99.90;;;;;;5003100;28;20046;-83
2021/12/24 03:00:19;;;;;;;24.25;9.63;;;7.40;99.90;;;;;;4969615;28;84946;-83
2021/12/24 03:02:48;;;;;;;22.25;9.52;;;7.40;99.90;;;;;;4995422;28;20068;-82
2021/12/24 03:05:19;;;;;;;27.55;10.10;;;7.40;99.90;;;;;;4988733;28;185217;-82
2021/12/24 03:08:04;;;;;;;24.40;9.93;;;7.40;99.90;;;;;;4988658;28;20060;-82
2021/12/24 03:10:53;;;;;;;24.25;9.75;;;7.50;99.90;;;;;;4973776;28;20046;-82
2021/12/24 03:13:29;;;;;;;27.65;10.52;;;7.50;99.90;;;;;;4948667;28;20168;-83
2021/12/24 03:16:07;;;;;;;28.83;10.93;;;7.60;99.90;;;;;;4818506;28;2976620;-82
2021/12/24 03:19:23;;;;;;;33.00;10.98;;;7.60;99.90;;;;;;4949290;28;20043;-83
2021/12/24 03:25:09;;;;;;;56.05;15.35;;;7.70;99.90;;;;;;4892166;28;294236;-83
2021/12/24 03:27:44;;;;;;;59.28;15.48;;;7.70;99.90;;;;;;4887167;29;20367;-83
2021/12/24 03:30:26;;;;;;;44.42;15.63;;;7.80;99.90;;;;;;4873296;29;173922;-83
2021/12/24 03:33:19;;;;;;;52.00;16.25;;;7.80;99.90;;;;;;4883622;29;20057;-83
2021/12/24 03:38:49;;;;;;;53.95;16.52;;;7.80;99.90;;;;;;4833788;29;20049;-82
2021/12/24 03:41:38;;;;;;;69.47;18.83;;;7.90;99.90;;;;;;4722516;29;3005963;-82
2021/12/24 03:47:39;;;;;;;87.10;21.20;;;8.00;99.90;;;;;;4816192;29;20213;-82
2021/12/24 03:50:17;;;;;;;86.95;22.30;;;8.00;99.90;;;;;;5014764;23;128276;-71
2021/12/24 03:53:05;;;;;;;108.32;23.52;;;8.10;99.90;;;;;;5040217;28;21198;-68
2021/12/24 03:55:31;;;;;;;120.88;25.48;;;8.10;99.90;;;;;;4993302;28;212934;-69
2021/12/24 03:57:58;;;;;;;133.40;27.10;;;8.00;99.90;;;;;;5036591;28;20050;-68
2021/12/24 04:00:28;;;;;;;107.28;26.00;;;8.10;99.90;;;;;;5020592;28;273020;-70
2021/12/24 04:02:55;;;;;;;105.68;27.65;;;8.10;99.90;;;;;;5051424;23;20057;-71
2021/12/24 04:05:21;;;;;;;101.95;26.75;;;8.20;99.90;;;;;;4984891;28;132450;-71
2021/12/24 04:07:47;;;;;;;89.68;25.40;;;8.20;99.90;;;;;;5024521;28;20046;-71
2021/12/24 04:10:30;;;;;;;85.82;25.70;;;8.20;99.90;;;;;;4986205;28;222498;-72
2021/12/24 04:12:56;;;;;;;87.57;25.30;;;8.20;99.90;;;;;;4985565;28;20062;-71
2021/12/24 04:15:22;;;;;;;83.63;25.30;;;8.30;99.90;;;;;;4953340;28;179293;-70
2021/12/24 04:17:49;;;;;;;89.38;25.80;;;8.30;99.90;;;;;;4986262;28;20423;-70
2021/12/24 04:25:46;;;;;;;107.28;29.33;;;8.30;99.90;;;;;;4975061;28;267012;-70
2021/12/24 04:28:12;;;;;;;94.22;29.45;;;8.30;99.90;;;;;;4975424;28;20512;-71
2021/12/24 04:30:44;;;;;;;97.10;28.75;;;8.30;99.90;;;;;;4970148;28;139072;-71
2021/12/24 04:33:21;;;;;;;97.28;28.58;;;8.30;99.90;;;;;;4985061;28;20062;-71
2021/12/24 04:35:58;;;;;;;91.57;27.75;;;8.30;99.90;;;;;;4976279;28;218165;-71
2021/12/24 04:38:36;;;;;;;98.47;27.30;;;8.30;99.90;;;;;;4982082;28;20421;-71
2021/12/24 04:52:11;;;;;;;97.47;28.95;;;8.30;99.90;;;;;;4979811;28;20050;-70
2021/12/24 05:05:23;;;;;;;76.20;24.88;;;8.30;99.90;;;;;;4960647;28;256618;-72
2021/12/24 05:10:17;;;;;;;77.25;25.30;;;8.40;99.90;;;;;;4990175;28;119436;-71
2021/12/24 05:12:44;;;;;;;67.82;24.83;;;8.30;99.90;;;;;;4982780;28;20078;-71
2021/12/24 05:15:11;;;;;;;61.05;24.80;;;8.30;99.90;;;;;;4979087;28;59861;-72
2021/12/24 05:18:10;;;;;;;67.22;26.83;;;8.40;99.90;;;;;;4983868;28;20504;-72
2021/12/24 05:23:20;;;;;;;70.70;26.90;;;8.40;99.90;;;;;;5002963;28;20052;-71
2021/12/24 05:25:48;;;;;;;70.47;27.58;;;8.30;99.90;;;;;;4991647;28;265026;-71
2021/12/24 05:28:15;;;;;;;64.95;26.83;;;8.40;99.90;;;;;;4971907;28;20050;-72
2021/12/24 05:30:41;;;;;;;77.82;26.92;;;8.40;99.90;;;;;;4981520;28;258132;-71
2021/12/24 05:33:12;;;;;;;70.70;27.13;;;8.40;99.90;;;;;;4987112;28;20061;-72
2021/12/24 05:35:39;;;;;;;62.60;25.02;;;8.40;99.90;;;;;;4980343;28;41646;-71
2021/12/24 05:38:05;;;;;;;69.75;26.50;;;8.40;99.90;;;;;;5004065;28;20042;-72
2021/12/24 05:40:31;;;;;;;66.82;26.13;;;8.40;99.90;;;;;;4970491;28;246049;-72
2021/12/24 05:42:58;;;;;;;66.03;24.60;;;8.40;99.90;;;;;;5002357;28;20659;-71
2021/12/24 05:45:24;;;;;;;59.58;24.17;;;8.40;99.90;;;;;;4974895;28;225327;-72
2021/12/24 05:47:51;;;;;;;65.20;25.00;;;8.40;99.90;;;;;;4971635;28;20418;-72
2021/12/24 05:50:18;;;;;;;62.58;23.35;;;8.40;99.90;;;;;;4981805;28;275634;-72
2021/12/24 05:52:44;;;;;;;66.53;23.38;;;8.40;99.90;;;;;;4987270;28;20072;-72
2021/12/24 05:55:11;;;;;;;62.30;21.98;;;8.40;99.90;;;;;;4985841;28;76938;-72
2021/12/24 05:57:37;;;;;;;61.10;22.77;;;8.40;99.90;;;;;;4987239;28;20057;-72
2021/12/24 06:00:06;;;;;;;68.18;23.27;;;8.40;99.90;;;;;;4984143;28;123073;-72
2021/12/24 06:02:33;;;;;;;64.78;22.48;;;8.40;99.90;;;;;;4986678;28;20522;-71
2021/12/24 06:04:59;;;;;;;68.65;22.70;;;8.40;99.90;;;;;;4958761;28;152535;-71
2021/12/24 06:07:26;;;;;;;58.17;21.05;;;8.40;99.90;;;;;;4984261;28;20054;-71
2021/12/24 06:09:53;;;;;;;49.17;19.30;;;8.40;99.90;;;;;;4990103;28;272726;-71
2021/12/24 06:12:19;;;;;;;52.55;19.25;;;8.30;99.90;;;;;;4987916;28;20321;-71
2021/12/24 06:14:52;;;;;;;55.45;19.02;;;8.30;99.90;;;;;;4971411;28;187634;-71
2021/12/24 06:17:19;;;;;;;46.85;18.77;;;8.30;99.90;;;;;;4980537;28;20053;-72
2021/12/24 06:19:45;;;;;;;58.22;18.17;;;8.30;99.90;;;;;;4972452;28;153578;-71
2021/12/24 06:22:11;;;;;;;52.30;17.45;;;8.30;99.90;;;;;;4968139;28;20069;-71
2021/12/24 06:24:37;;;;;;;46.38;16.83;;;8.30;99.90;;;;;;4967102;28;201222;-71
2021/12/24 06:27:04;;;;;;;47.00;15.63;;;8.30;99.90;;;;;;4994618;28;20042;-71
2021/12/24 06:29:31;;;;;;;45.72;16.08;;;8.30;99.90;;;;;;4970449;28;257511;-71
2021/12/24 06:31:57;;;;;;;44.55;14.93;;;8.30;99.90;;;;;;4993744;28;20531;-71
2021/12/24 06:34:26;;;;;;;49.03;14.48;;;8.30;99.90;;;;;;4976800;28;254041;-71
2021/12/24 06:36:53;;;;;;;43.30;14.90;;;8.30;99.90;;;;;;4986671;28;20431;-71
2021/12/24 06:39:19;;;;;;;35.45;12.85;;;8.30;99.90;;;;;;4967771;28;254814;-71
2021/12/24 06:41:45;;;;;;;46.45;14.57;;;8.30;99.90;;;;;;4988298;28;20046;-71
2021/12/24 06:44:12;;;;;;;45.30;14.52;;;8.30;99.90;;;;;;4966585;28;262134;-71
2021/12/24 06:46:40;;;;;;;44.35;13.20;;;8.30;99.90;;;;;;4986428;28;20530;-72
2021/12/24 06:49:08;;;;;;;42.03;13.02;;;8.30;99.90;;;;;;4972350;28;259671;-72
2021/12/24 06:51:34;;;;;;;46.47;13.60;;;8.30;99.90;;;;;;4991063;28;20060;-71
2021/12/24 06:54:01;;;;;;;41.63;12.95;;;8.30;99.90;;;;;;4988496;28;20058;-72
2021/12/24 06:56:27;;;;;;;45.35;13.13;;;8.30;99.90;;;;;;4973094;28;102065;-72
2021/12/24 06:58:53;;;;;;;39.28;11.82;;;8.30;99.90;;;;;;4986728;28;20415;-71
2021/12/24 07:01:19;;;;;;;43.13;13.40;;;8.30;99.90;;;;;;4990885;28;61600;-71
2021/12/24 07:03:45;;;;;;;46.70;12.57;;;8.20;99.90;;;;;;4987264;28;20054;-71
2021/12/24 07:06:12;;;;;;;42.33;12.15;;;8.20;99.90;;;;;;4972847;28;257741;-71
2021/12/24 07:08:38;;;;;;;42.03;11.85;;;8.20;99.90;;;;;;4985111;28;20149;-71
2021/12/24 07:11:05;;;;;;;40.35;12.52;;;8.20;99.90;;;;;;4969146;28;224702;-71
2021/12/24 07:13:31;;;;;;;48.80;12.48;;;8.20;99.90;;;;;;4985623;28;20076;-71
2021/12/24 07:15:58;;;;;;;40.58;11.93;;;8.20;99.90;;;;;;4979413;28;254268;-71
2021/12/24 07:18:24;;;;;;;44.13;11.43;;;8.20;99.90;;;;;;4971782;28;20388;-72
2021/12/24 07:20:50;;;;;;;38.15;11.70;;;8.20;99.90;;;;;;4982676;28;193917;-71
2021/12/24 07:23:16;;;;;;;45.80;12.30;;;8.10;99.90;;;;;;4988352;28;20061;-72
2021/12/24 07:25:43;;;;;;;42.00;12.85;;;8.10;99.90;;;;;;4984710;28;263554;-71
2021/12/24 07:28:09;;;;;;;44.75;11.73;;;8.10;99.90;;;;;;4988168;28;20396;-71
2021/12/24 07:30:35;;;;;;;45.28;12.23;;;8.10;99.90;;;;;;4981354;28;258105;-71
2021/12/24 07:33:01;;;;;;;39.08;10.88;;;8.10;99.90;;;;;;5001791;28;20514;-71
2021/12/24 07:35:27;;;;;;;43.78;11.05;;;8.10;99.90;;;;;;4971242;28;155055;-72
2021/12/24 07:37:53;;;;;;;37.88;9.80;;;8.10;99.90;;;;;;4987213;28;20047;-71
2021/12/24 07:40:20;;;;;;;36.85;9.80;;;8.10;99.90;;;;;;4996951;28;99247;-72
2021/12/24 07:42:47;;;;;;;33.53;9.93;;;8.10;99.90;;;;;;4990418;28;20050;-71
2021/12/24 07:45:15;;;;;;;31.08;10.07;;;8.10;99.90;;;;;;4980618;28;101453;-72
2021/12/24 07:47:43;;;;;;;41.88;9.70;;;8.10;99.90;;;;;;5009279;28;20084;-72
2021/12/24 07:51:55;;;;;;;41.95;9.82;;;8.10;99.90;;;;;;4974965;28;20077;-71
2021/12/24 07:53:08;;;;;;;37.15;9.32;;;8.10;99.90;;;;;;4989212;28;20533;-72
2021/12/24 07:55:36;;;;;;;35.88;9.73;;;8.10;99.90;;;;;;4961671;28;62980;-72
2021/12/24 07:58:04;;;;;;;36.60;9.55;;;8.10;99.90;;;;;;4990780;28;20061;-71
2021/12/24 08:00:31;;;;;;;36.78;9.90;;;8.00;99.90;;;;;;4972874;28;222573;-71
2021/12/24 08:02:58;;;;;;;35.80;9.45;;;8.00;99.90;;;;;;4992158;28;20526;-72
2021/12/24 08:05:25;;;;;;;29.70;8.38;;;8.00;99.90;;;;;;4970653;28;256046;-72
2021/12/24 08:07:53;;;;;;;35.72;8.57;;;8.00;99.90;;;;;;4990409;28;20549;-73
2021/12/24 08:10:21;;;;;;;38.13;8.48;;;8.00;99.90;;;;;;4987501;28;254240;-71
2021/12/24 08:12:47;;;;;;;31.23;8.20;;;8.00;99.90;;;;;;4987288;28;20458;-72
2021/12/24 08:15:14;;;;;;;32.92;8.05;;;8.00;99.90;;;;;;4973786;28;142289;-71
2021/12/24 08:17:40;;;;;;;28.23;7.90;;;8.00;99.90;;;;;;4979836;28;20552;-72
2021/12/24 08:20:07;;;;;;;28.50;7.72;;;8.00;99.90;;;;;;4976849;28;200108;-71
2021/12/24 08:22:35;;;;;;;29.65;7.38;;;8.00;99.90;;;;;;4972060;28;20445;-71
2021/12/24 08:25:05;;;;;;;30.65;7.57;;;8.10;99.90;;;;;;4985897;28;249747;-71
2021/12/24 08:27:32;;;;;;;27.00;6.85;;;8.10;99.90;;;;;;4987681;28;20102;-71
2021/12/24 08:29:58;;;;;;;36.15;7.45;;;8.10;99.90;;;;;;4976024;28;98123;-71
2021/12/24 08:32:25;;;;;;;31.23;7.15;;;8.10;99.90;;;;;;4994491;28;20061;-71
2021/12/24 08:34:55;;;;;;;27.73;6.60;;;8.10;99.90;;;;;;4969602;28;196574;-71
2021/12/24 08:37:23;;;;;;;28.40;7.18;;;8.10;99.90;;;;;;4984372;28;20076;-71
2021/12/24 08:39:49;;;;;;;33.72;6.72;;;8.10;99.90;;;;;;4973954;28;147398;-71
2021/12/24 08:42:17;;;;;;;32.75;7.65;;;8.10;99.90;;;;;;4975344;28;20049;-72
2021/12/24 08:44:43;;;;;;;43.25;8.02;;;8.10;99.90;;;;;;4986529;28;146021;-71
2021/12/24 08:47:09;;;;;;;31.40;7.68;;;8.10;99.90;;;;;;4985792;28;20072;-72
2021/12/24 08:49:35;;;;;;;33.63;8.20;;;8.10;99.90;;;;;;4975313;28;168101;-71
2021/12/24 08:52:02;;;;;;;37.35;7.32;;;8.10;99.90;;;;;;4988889;28;20076;-71
2021/12/24 08:54:28;;;;;;;42.25;7.68;;;8.10;99.90;;;;;;4970217;28;261935;-71
2021/12/24 08:56:55;;;;;;;32.10;7.90;;;8.10;99.90;;;;;;5004745;28;20057;-71
2021/12/24 08:59:23;;;;;;;38.67;7.97;;;8.10;99.90;;;;;;4966794;28;269368;-71
2021/12/24 09:01:52;;;;;;;35.90;8.18;;;8.10;99.90;;;;;;5003972;28;20062;-71
2021/12/24 09:04:19;;;;;;;30.60;8.02;;;8.00;99.90;;;;;;4955490;28;250971;-70
2021/12/24 09:06:46;;;;;;;32.30;7.88;;;8.10;99.90;;;;;;4972170;28;20053;-71
2021/12/24 09:09:12;;;;;;;41.78;8.77;;;8.10;99.90;;;;;;4990788;28;266777;-71
2021/12/24 09:11:40;;;;;;;33.42;8.05;;;8.00;99.90;;;;;;5003977;28;20065;-71
2021/12/24 09:14:07;;;;;;;37.13;9.00;;;8.10;99.90;;;;;;4987704;28;263522;-71
2021/12/24 09:16:36;;;;;;;33.47;8.45;;;8.10;99.90;;;;;;4986339;28;20499;-71
2021/12/24 09:19:07;;;;;;;50.13;9.15;;;8.10;99.90;;;;;;5002768;28;20057;-71
2021/12/24 09:21:34;;;;;;;47.60;9.57;;;8.10;99.90;;;;;;4958939;28;20072;-71
2021/12/24 09:24:02;;;;;;;43.40;8.70;;;8.10;99.90;;;;;;4987117;28;20451;-72
2021/12/24 09:26:30;;;;;;;32.53;8.13;;;8.10;99.90;;;;;;4976671;28;20053;-71
2021/12/24 09:28:57;;;;;;;43.55;9.65;;;8.10;99.90;;;;;;4998292;28;20054;-71
2021/12/24 09:31:24;;;;;;;42.53;9.30;;;8.10;99.90;;;;;;4954969;28;48885;-71
2021/12/24 09:33:50;;;;;;;44.67;8.30;;;8.10;99.90;;;;;;5001821;28;20050;-71
2021/12/24 09:36:23;;;;;;;41.00;8.65;;;8.10;99.90;;;;;;4980940;28;270549;-71
2021/12/24 09:38:51;;;;;;;48.22;7.90;;;8.10;99.90;;;;;;5011102;28;20042;-71
2021/12/24 09:41:18;;;;;;;39.40;9.15;;;8.10;99.90;;;;;;4974929;28;144294;-71
2021/12/24 09:43:44;;;;;;;41.67;8.38;;;8.10;99.90;;;;;;4989219;28;20076;-71
2021/12/24 09:46:11;;;;;;;37.08;9.00;;;8.10;99.90;;;;;;4957889;28;158093;-71
2021/12/24 09:48:39;;;;;;;36.95;8.73;;;8.10;99.90;;;;;;4985818;28;20053;-71
2021/12/24 09:51:05;;;;;;;35.55;8.43;;;8.10;99.90;;;;;;4974899;28;43555;-71
2021/12/24 09:53:32;;;;;;;45.72;9.10;;;8.20;99.90;;;;;;4985776;28;20054;-71
2021/12/24 09:55:58;;;;;;;52.05;9.50;;;8.20;99.90;;;;;;4968380;28;180895;-71
2021/12/24 09:58:24;;;;;;;41.45;8.13;;;8.20;99.90;;;;;;4988557;28;20050;-71
2021/12/24 10:00:50;;;;;;;32.25;8.20;;;8.20;99.90;;;;;;4989122;28;251115;-71
2021/12/24 10:03:37;;;;;;;35.55;8.80;;;8.20;99.90;;;;;;5009058;23;20417;-70
2021/12/24 10:06:05;;;;;;;26.42;6.78;;;8.20;99.90;;;;;;4977705;28;273601;-70
2021/12/24 10:08:32;;;;;;;30.13;7.95;;;8.20;99.90;;;;;;5000809;28;20049;-71
2021/12/24 10:11:06;;;;;;;26.70;6.20;;;8.20;99.90;;;;;;4998042;28;257833;-70
2021/12/24 10:13:34;;;;;;;23.77;5.28;;;8.20;99.90;;;;;;4998671;28;20050;-69
2021/12/24 10:16:22;;;;;;;24.17;6.30;;;8.30;99.90;;;;;;4985808;28;227485;-70
2021/12/24 10:18:51;;;;;;;24.38;5.50;;;8.20;99.90;;;;;;5001404;28;20066;-70
2021/12/24 10:21:18;;;;;;;20.02;5.55;;;8.30;99.90;;;;;;4989738;28;33766;-71
2021/12/24 10:23:55;;;;;;;18.10;4.88;;;8.20;99.90;;;;;;5011698;28;20423;-70
2021/12/24 10:26:23;;;;;;;17.77;4.47;;;8.30;99.90;;;;;;4972685;28;33928;-71
2021/12/24 10:29:05;;;;;;;36.22;22.00;;;8.30;99.90;;;;;;4983206;28;20030;-69
2021/12/24 10:31:43;;;;;;;18.08;4.43;;;8.30;99.90;;;;;;4966852;28;20046;-69
2021/12/24 10:34:16;;;;;;;14.20;3.90;;;8.30;99.90;;;;;;4963279;28;261817;-69
2021/12/24 10:37:25;;;;;;;18.55;3.95;;;8.20;99.90;;;;;;4995600;28;20058;-70
2021/12/24 10:40:00;;;;;;;17.35;3.75;;;8.30;99.90;;;;;;4950544;28;20365;-70
2021/12/24 10:42:36;;;;;;;15.40;3.83;;;8.20;99.90;;;;;;4958121;28;20054;-69
2021/12/24 10:45:06;;;;;;;16.33;4.60;;;8.20;99.90;;;;;;4946815;28;46873;-70
2021/12/24 10:47:37;;;;;;;7.80;2.05;;;8.20;99.90;;;;;;4937954;28;20055;-70
2021/12/24 10:50:24;;;;;;;6.35;1.30;;;8.00;99.90;;;;;;4936117;28;170143;-70
2021/12/24 10:53:12;;;;;;;6.05;1.60;;;7.70;99.90;;;;;;4952061;28;20054;-70
2021/12/24 10:55:49;;;;;;;5.97;1.50;;;7.60;99.90;;;;;;4931910;28;109054;-69
2021/12/24 10:58:19;;;;;;;4.97;1.40;;;7.30;99.90;;;;;;4953163;28;20185;-70
2021/12/24 11:00:50;;;;;;;5.15;1.45;;;7.10;99.90;;;;;;4937629;28;272995;-70
2021/12/24 11:03:21;;;;;;;6.03;1.58;;;7.00;99.90;;;;;;4944176;28;20258;-70
2021/12/24 11:05:49;;;;;;;;;;;7.00;99.90;;;;;;4895864;28;147474;-70
2021/12/24 11:08:19;;;;;;;6.40;1.83;;;6.90;99.90;;;;;;4944611;28;19933;-70
2021/12/24 11:10:57;;;;;;;7.45;2.30;;;6.80;99.90;;;;;;4938327;28;182206;-69
2021/12/24 11:13:38;;;;;;;7.57;1.70;;;6.80;99.90;;;;;;4959393;28;20054;-69
2021/12/24 11:16:15;;;;;;;5.70;1.60;;;6.70;99.90;;;;;;4941175;28;218543;-70
2021/12/24 11:18:46;;;;;;;6.15;1.60;;;6.70;99.90;;;;;;4982164;28;20054;-70
2021/12/24 11:21:18;;;;;;;7.18;2.33;;;6.60;99.90;;;;;;4956791;28;263878;-70
2021/12/24 11:23:44;;;;;;;7.65;2.10;;;6.60;99.90;;;;;;4977242;28;20070;-69
2021/12/24 11:26:15;;;;;;;6.80;2.40;;;6.60;99.90;;;;;;4961897;28;191258;-70
2021/12/24 11:28:43;;;;;;;8.50;3.13;;;6.60;99.90;;;;;;4979491;28;20050;-71
2021/12/24 11:31:10;;;;;;;9.75;2.35;;;6.60;99.90;;;;;;4982392;28;165370;-70
2021/12/24 11:33:39;;;;;;;6.53;2.15;;;6.70;99.90;;;;;;4973304;28;20263;-71
2021/12/24 11:36:07;;;;;;;9.68;3.13;;;6.70;99.90;;;;;;4973537;28;254199;-69
2021/12/24 11:38:37;;;;;;;7.63;2.83;;;6.70;99.90;;;;;;4980307;28;20042;-70
2021/12/24 11:41:06;;;;;;;8.65;3.40;;;6.90;99.90;;;;;;4978203;28;266602;-69
2021/12/24 11:43:35;;;;;;;8.63;3.40;;;7.00;99.90;;;;;;4994223;28;20074;-69
2021/12/24 11:46:07;;;;;;;8.52;2.92;;;7.00;99.90;;;;;;4978898;28;267144;-71
2021/12/24 11:48:34;;;;;;;8.05;3.20;;;7.10;99.90;;;;;;4978237;28;20057;-70
2021/12/24 11:51:06;;;;;;;8.70;3.60;;;7.10;99.90;;;;;;4975730;28;268514;-70
2021/12/24 11:53:33;;;;;;;9.48;3.15;;;7.00;99.90;;;;;;5000736;28;20161;-69
2021/12/24 11:56:07;;;;;;;8.13;3.33;;;7.00;99.90;;;;;;4993190;28;34187;-71
2021/12/24 11:58:49;;;;;;;7.78;3.17;;;6.90;99.90;;;;;;5014680;28;20057;-70
2021/12/24 12:01:21;;;;;;;8.55;2.97;;;6.80;99.90;;;;;;4983432;28;226302;-69
2021/12/24 12:03:52;;;;;;;;;;;6.80;99.90;;;;;;5003034;28;20054;-70
2021/12/24 12:06:24;;;;;;;7.32;3.10;;;6.80;99.90;;;;;;4975161;28;184518;-70
2021/12/24 12:09:00;;;;;;;7.25;2.50;;;6.80;99.90;;;;;;4998334;28;20061;-70
2021/12/24 12:11:28;;;;;;;6.55;2.30;;;6.70;99.90;;;;;;4984559;28;198601;-70
2021/12/24 12:13:54;;;;;;;7.13;2.30;;;6.70;99.90;;;;;;4985394;28;20046;-70
2021/12/24 12:16:39;;;;;;;6.25;2.10;;;6.70;99.90;;;;;;4998943;28;257111;-69
2021/12/24 12:19:37;;;;;;;6.80;2.17;;;6.70;99.90;;;;;;4997696;28;267678;-69
2021/12/24 12:25:27;;;;;;;7.53;2.28;;;6.60;99.90;;;;;;4986184;28;272069;-71
2021/12/24 12:27:58;;;;;;;6.35;2.17;;;6.50;99.90;;;;;;4997766;28;20050;-70
2021/12/24 12:30:29;;;;;;;9.45;2.30;;;6.60;99.90;;;;;;4992173;28;277412;-70
2021/12/24 12:33:08;;;;;;;6.70;2.20;;;6.50;99.90;;;;;;5001399;28;20057;-69
2021/12/24 12:35:41;;;;;;;6.68;2.13;;;6.60;99.90;;;;;;4993980;28;251737;-70
2021/12/24 12:38:29;;;;;;;7.68;2.25;;;6.50;99.90;;;;;;5000319;28;20518;-70
2021/12/24 12:41:23;;;;;;;6.40;2.20;;;6.50;99.90;;;;;;4999280;28;260440;-69
2021/12/24 12:43:51;;;;;;;7.00;2.40;;;6.40;99.90;;;;;;5004156;28;20054;-70
2021/12/24 12:46:26;;;;;;;19.92;16.20;;;6.40;99.90;;;;;;4987200;28;272879;-69
2021/12/24 12:48:54;;;;;;;7.32;3.08;;;6.40;99.90;;;;;;4989649;28;20057;-70
2021/12/24 12:51:41;;;;;;;8.32;2.55;;;6.50;99.90;;;;;;4992059;28;143228;-70
2021/12/24 12:54:28;;;;;;;7.45;2.50;;;6.50;99.90;;;;;;4985979;28;264544;-70
2021/12/24 12:57:19;;;;;;;7.63;2.70;;;6.50;99.90;;;;;;5012165;28;20053;-69
2021/12/24 13:00:08;;;;;;;7.50;2.65;;;6.50;99.90;;;;;;4990805;28;254429;-70
2021/12/24 13:02:57;;;;;;;7.47;2.88;;;6.60;99.90;;;;;;4996741;28;20592;-69
2021/12/24 13:05:33;;;;;;;7.90;3.20;;;6.70;99.90;;;;;;4976700;28;131850;-68
2021/12/24 13:08:14;;;;;;;8.02;2.67;;;6.70;99.90;;;;;;5004162;28;20046;-71
2021/12/24 13:10:52;;;;;;;7.50;2.97;;;6.70;99.90;;;;;;4998043;28;251499;-69
2021/12/24 13:13:18;;;;;;;7.40;2.97;;;6.80;99.90;;;;;;5004253;28;20053;-69
2021/12/24 13:15:46;;;;;;;7.93;3.10;;;6.80;99.90;;;;;;5000072;28;252777;-69
2021/12/24 13:18:33;;;;;;;7.40;2.50;;;6.80;99.90;;;;;;5001252;28;20058;-69
2021/12/24 13:23:32;;;;;;;10.30;3.78;;;6.80;99.90;;;;;;5002350;28;20050;-70
2021/12/24 13:26:13;;;;;;;8.70;3.40;;;6.80;99.90;;;;;;4978810;28;20053;-70
2021/12/24 13:28:58;;;;;;;9.73;3.30;;;6.80;99.90;;;;;;5004184;28;20045;-69
2021/12/24 13:31:25;;;;;;;9.50;3.97;;;6.80;99.90;;;;;;4993760;28;240407;-70
2021/12/24 13:33:51;;;;;;;9.50;3.55;;;6.80;99.90;;;;;;5006759;28;20049;-70
2021/12/24 13:36:23;;;;;;;8.32;3.60;;;6.80;99.90;;;;;;5000989;28;213869;-70
2021/12/24 13:38:49;;;;;;;8.32;3.08;;;6.80;99.90;;;;;;5011790;28;20065;-70
2021/12/24 13:41:16;;;;;;;9.25;3.60;;;6.90;99.90;;;;;;4985186;28;216987;-70
2021/12/24 13:43:42;;;;;;;7.75;2.90;;;6.90;99.90;;;;;;5002184;28;20359;-69
2021/12/24 13:46:10;;;;;;;10.32;3.95;;;6.90;99.90;;;;;;4996803;28;273514;-69
2021/12/24 13:48:52;;;;;;;8.20;3.38;;;6.80;99.90;;;;;;5001481;28;20137;-69
2021/12/24 13:56:45;;;;;;;7.55;3.13;;;6.70;99.90;;;;;;4972541;28;20052;-69
2021/12/24 13:59:14;;;;;;;8.07;3.33;;;6.60;99.90;;;;;;4981641;28;268374;-70
2021/12/24 14:01:42;;;;;;;7.80;3.10;;;6.70;99.90;;;;;;5002574;28;20045;-70
2021/12/24 14:04:09;;;;;;;8.50;3.30;;;6.60;99.90;;;;;;4981181;28;253902;-70
2021/12/24 14:06:38;;;;;;;10.93;3.40;;;6.70;99.90;;;;;;4978633;28;20049;-71
2021/12/24 14:09:10;;;;;;;8.27;3.10;;;6.70;99.90;;;;;;4996409;28;20427;-69
2021/12/24 14:11:37;;;;;;;8.65;3.40;;;6.70;99.90;;;;;;4969097;28;20077;-69
2021/12/24 14:14:10;;;;;;;9.63;3.17;;;6.60;99.90;;;;;;5000241;28;20412;-69
2021/12/24 14:16:59;;;;;;;9.90;3.50;;;6.60;99.90;;;;;;4987594;28;20689;-69
2021/12/24 14:19:35;;;;;;;8.27;3.13;;;6.60;99.90;;;;;;4982140;28;268324;-70
2021/12/24 14:22:11;;;;;;;7.55;3.10;;;6.60;99.90;;;;;;5011204;28;20080;-69
2021/12/24 14:24:49;;;;;;;8.02;3.17;;;6.60;99.90;;;;;;4981793;28;264423;-70
2021/12/24 14:27:17;;;;;;;10.80;3.67;;;6.50;99.90;;;;;;5010525;28;20054;-69
2021/12/24 14:29:45;;;;;;;10.02;3.70;;;6.50;99.90;;;;;;4986951;28;259414;-69
2021/12/24 14:32:16;;;;;;;8.82;3.47;;;6.50;99.90;;;;;;5012407;28;20038;-69
2021/12/24 14:34:48;;;;;;;9.48;3.65;;;6.50;99.90;;;;;;4986231;28;258990;-69
2021/12/24 14:37:23;;;;;;;9.30;3.33;;;6.50;99.90;;;;;;4995627;28;20395;-71
2021/12/24 14:40:07;;;;;;;9.40;3.80;;;6.50;99.90;;;;;;4986488;28;268173;-69
2021/12/24 14:42:36;;;;;;;9.02;3.70;;;6.40;99.90;;;;;;5006827;28;20054;-69
2021/12/24 14:45:21;;;;;;;9.10;3.40;;;6.40;99.90;;;;;;4990268;28;253566;-69
2021/12/24 14:48:03;;;;;;;7.43;3.28;;;6.50;99.90;;;;;;5005624;28;20057;-68
2021/12/24 14:50:34;;;;;;;8.30;3.33;;;6.40;99.90;;;;;;4988973;28;133826;-69
2021/12/24 14:53:25;;;;;;;9.35;3.42;;;6.40;99.90;;;;;;5000678;28;20058;-69
2021/12/24 14:56:04;;;;;;;12.60;3.47;;;6.40;99.90;;;;;;4992052;28;267226;-69
2021/12/24 14:58:40;;;;;;;8.05;3.45;;;6.40;99.90;;;;;;4998127;28;20487;-69